createdAt,value
2023-05-21T00:02:24.045Z,95.60
2023-05-21T00:04:51.568Z,95.80
2023-05-21T00:07:19.181Z,95.80
2023-05-21T00:09:46.759Z,96.00
2023-05-21T00:12:14.336Z,96.60
2023-05-21T00:14:41.949Z,96.60
2023-05-21T00:17:09.530Z,96.80
2023-05-21T00:19:37.136Z,97.10
2023-05-21T00:22:04.750Z,97.40
2023-05-21T00:24:32.344Z,97.60
2023-05-21T00:26:59.918Z,98.00
2023-05-21T00:29:27.558Z,97.80
2023-05-21T00:31:55.158Z,98.00
2023-05-21T00:34:22.712Z,98.20
2023-05-21T00:36:51.120Z,98.80
2023-05-21T00:39:18.692Z,98.60
2023-05-21T00:41:46.266Z,98.80
2023-05-21T00:44:13.890Z,99.00
2023-05-21T00:46:42.231Z,99.40
2023-05-21T00:49:09.805Z,99.30
2023-05-21T00:51:38.197Z,99.80
2023-05-21T00:54:06.562Z,99.50
2023-05-21T00:56:34.132Z,99.50
2023-05-21T00:59:02.537Z,99.30
2023-05-21T01:01:30.162Z,99.30
2023-05-21T01:03:57.735Z,99.50
2023-05-21T01:06:25.321Z,99.70
2023-05-21T01:08:52.899Z,99.90
2023-05-21T01:11:20.477Z,99.90
2023-05-21T01:13:48.094Z,99.90
2023-05-21T01:16:15.691Z,99.90
2023-05-21T01:18:43.277Z,99.90
2023-05-21T01:21:10.856Z,99.90
2023-05-21T01:23:38.441Z,99.90
2023-05-21T01:26:06.015Z,99.90
2023-05-21T01:28:33.626Z,99.90
2023-05-21T01:31:02.001Z,99.90
2023-05-21T01:33:44.458Z,99.90
2023-05-21T01:36:26.544Z,99.90
2023-05-21T01:39:18.265Z,99.90
2023-05-21T01:41:45.831Z,99.90
2023-05-21T01:44:13.446Z,99.90
2023-05-21T01:46:41.171Z,99.90
2023-05-21T01:49:08.618Z,99.90
2023-05-21T01:51:36.225Z,99.90
2023-05-21T01:54:03.818Z,99.90
2023-05-21T01:56:31.406Z,99.90
2023-05-21T01:58:58.995Z,99.90
2023-05-21T02:01:26.618Z,99.90
2023-05-21T02:03:54.334Z,99.90
2023-05-21T02:06:21.792Z,99.90
2023-05-21T02:08:50.213Z,99.90
2023-05-21T02:11:17.796Z,99.90
2023-05-21T02:13:45.366Z,99.90
2023-05-21T02:16:13.102Z,99.90
2023-05-21T02:18:40.651Z,99.90
2023-05-21T02:21:08.962Z,99.90
2023-05-21T02:23:36.664Z,99.90
2023-05-21T02:26:05.026Z,99.90
2023-05-21T02:28:32.608Z,99.90
2023-05-21T02:31:00.991Z,99.90
2023-05-21T02:33:28.586Z,99.90
2023-05-21T02:35:56.181Z,99.90
2023-05-21T02:38:23.791Z,99.90
2023-05-21T02:40:51.389Z,99.90
2023-05-21T02:43:18.990Z,99.90
2023-05-21T02:45:47.484Z,99.90
2023-05-21T02:48:14.995Z,99.90
2023-05-21T02:50:42.600Z,99.90
2023-05-21T02:53:10.988Z,99.90
2023-05-21T02:55:38.706Z,99.90
2023-05-21T02:58:06.169Z,99.90
2023-05-21T03:00:33.780Z,99.90
2023-05-21T03:03:01.511Z,99.90
2023-05-21T03:05:28.954Z,99.90
2023-05-21T03:07:56.571Z,99.90
2023-05-21T03:10:24.168Z,99.90
2023-05-21T03:12:51.746Z,99.90
2023-05-21T03:15:20.127Z,99.90
2023-05-21T03:17:47.772Z,99.90
2023-05-21T03:20:15.325Z,99.90
2023-05-21T03:22:45.994Z,99.90
2023-05-21T03:25:13.555Z,99.90
2023-05-21T03:27:41.177Z,99.90
2023-05-21T03:30:08.875Z,99.90
2023-05-21T03:32:36.597Z,99.90
2023-05-21T03:35:04.062Z,99.90
2023-05-21T03:37:32.465Z,99.90
2023-05-21T03:40:00.058Z,99.90
2023-05-21T03:42:27.623Z,99.90
2023-05-21T03:44:55.288Z,99.90
2023-05-21T03:47:22.904Z,99.90
2023-05-21T03:49:50.469Z,99.90
2023-05-21T03:52:18.134Z,99.90
2023-05-21T03:54:45.708Z,99.90
2023-05-21T03:57:13.315Z,99.90
2023-05-21T03:59:40.963Z,99.90
2023-05-21T04:02:08.640Z,99.90
2023-05-21T04:04:36.199Z,99.90
2023-05-21T04:07:03.778Z,99.90
2023-05-21T04:09:32.226Z,99.90
2023-05-21T04:11:59.790Z,99.90
2023-05-21T04:14:27.431Z,99.90
2023-05-21T04:16:55.021Z,99.90
2023-05-21T04:19:22.705Z,99.90
2023-05-21T04:21:50.273Z,99.90
2023-05-21T04:24:17.852Z,99.90
2023-05-21T04:26:45.451Z,99.90
2023-05-21T04:29:13.091Z,99.90
2023-05-21T04:31:40.676Z,99.90
2023-05-21T04:34:08.256Z,99.90
2023-05-21T04:36:36.649Z,99.90
2023-05-21T04:39:05.006Z,99.90
2023-05-21T04:41:32.618Z,99.90
2023-05-21T04:44:00.310Z,99.90
2023-05-21T04:46:27.938Z,99.90
2023-05-21T04:48:56.246Z,99.90
2023-05-21T04:51:24.009Z,99.90
2023-05-21T04:53:51.580Z,99.90
2023-05-21T04:56:19.935Z,99.90
2023-05-21T04:58:47.558Z,99.90
2023-05-21T05:01:15.174Z,99.90
2023-05-21T05:03:42.782Z,99.90
2023-05-21T05:06:10.389Z,99.90
2023-05-21T05:08:37.977Z,99.90
2023-05-21T05:11:06.328Z,99.90
2023-05-21T05:13:34.099Z,99.90
2023-05-21T05:16:01.691Z,99.90
2023-05-21T05:18:30.035Z,99.90
2023-05-21T05:20:57.696Z,99.90
2023-05-21T05:23:25.268Z,99.90
2023-05-21T05:25:53.604Z,99.90
2023-05-21T05:28:21.225Z,99.90
2023-05-21T05:30:48.874Z,99.90
2023-05-21T05:33:16.423Z,99.90
2023-05-21T05:35:44.082Z,99.90
2023-05-21T05:38:11.648Z,99.90
2023-05-21T05:40:40.028Z,99.90
2023-05-21T05:43:08.412Z,99.90
2023-05-21T05:45:36.916Z,99.90
2023-05-21T05:48:04.432Z,99.90
2023-05-21T05:50:32.731Z,99.90
2023-05-21T05:53:00.347Z,99.90
2023-05-21T05:55:27.928Z,99.90
2023-05-21T05:57:55.555Z,99.90
2023-05-21T06:00:23.162Z,99.90
2023-05-21T06:02:50.814Z,99.90
2023-05-21T06:05:19.198Z,99.90
2023-05-21T06:07:46.770Z,99.90
2023-05-21T06:10:15.116Z,99.90
2023-05-21T06:12:42.758Z,99.90
2023-05-21T06:15:10.355Z,99.90
2023-05-21T06:17:37.982Z,99.90
2023-05-21T06:20:05.700Z,99.90
2023-05-21T06:22:33.302Z,99.90
2023-05-21T06:25:00.885Z,99.90
2023-05-21T06:27:28.656Z,99.90
2023-05-21T06:29:56.241Z,99.90
2023-05-21T06:32:24.623Z,99.90
2023-05-21T06:34:52.224Z,99.90
2023-05-21T06:37:19.802Z,99.90
2023-05-21T06:39:47.397Z,99.90
2023-05-21T06:42:15.824Z,99.90
2023-05-21T06:44:43.419Z,99.90
2023-05-21T06:47:10.992Z,99.90
2023-05-21T06:49:39.394Z,99.90
2023-05-21T06:52:06.979Z,99.90
2023-05-21T06:54:34.581Z,99.90
2023-05-21T06:57:02.205Z,99.90
2023-05-21T06:59:29.827Z,99.90
2023-05-21T07:01:57.392Z,99.90
2023-05-21T07:04:25.043Z,99.90
2023-05-21T07:06:53.387Z,99.90
2023-05-21T07:09:20.970Z,99.90
2023-05-21T07:11:49.390Z,99.90
2023-05-21T07:14:16.985Z,99.90
2023-05-21T07:16:44.631Z,99.90
2023-05-21T07:19:13.028Z,99.90
2023-05-21T07:21:40.595Z,99.90
2023-05-21T07:24:08.177Z,99.90
2023-05-21T07:26:36.621Z,99.90
2023-05-21T07:29:04.205Z,99.90
2023-05-21T07:31:32.609Z,99.90
2023-05-21T07:34:00.180Z,99.90
2023-05-21T07:36:27.761Z,99.90
2023-05-21T07:38:55.344Z,99.90
2023-05-21T07:41:22.980Z,99.90
2023-05-21T07:43:50.584Z,99.90
2023-05-21T07:46:18.953Z,99.90
2023-05-21T07:48:46.608Z,99.90
2023-05-21T07:51:14.159Z,99.90
2023-05-21T07:53:41.749Z,99.90
2023-05-21T07:56:10.137Z,99.90
2023-05-21T07:58:37.711Z,99.90
2023-05-21T08:01:05.310Z,99.90
2023-05-21T08:03:33.056Z,99.90
2023-05-21T08:06:00.513Z,99.90
2023-05-21T08:08:28.104Z,99.90
2023-05-21T08:10:55.719Z,99.90
2023-05-21T08:13:23.329Z,99.90
2023-05-21T08:15:52.814Z,99.90
2023-05-21T08:18:19.330Z,99.90
2023-05-21T08:20:46.903Z,99.90
2023-05-21T08:23:14.500Z,99.90
2023-05-21T08:25:42.922Z,99.90
2023-05-21T08:28:11.227Z,99.90
2023-05-21T08:30:38.829Z,99.90
2023-05-21T08:33:06.545Z,99.80
2023-05-21T08:35:34.914Z,99.20
2023-05-21T08:38:02.422Z,99.20
2023-05-21T08:40:30.820Z,98.10
2023-05-21T08:42:58.402Z,98.10
2023-05-21T08:45:26.022Z,97.80
2023-05-21T08:47:59.719Z,97.30
2023-05-21T08:50:27.279Z,97.20
2023-05-21T08:52:54.846Z,96.80
2023-05-21T08:55:25.261Z,96.80
2023-05-21T08:57:53.659Z,96.10
2023-05-21T09:00:21.209Z,96.10
2023-05-21T09:02:49.598Z,95.90
2023-05-21T09:05:17.937Z,95.90
2023-05-21T09:07:52.473Z,95.80
2023-05-21T09:10:19.543Z,95.70
2023-05-21T09:12:47.032Z,95.80
2023-05-21T09:15:14.627Z,95.10
2023-05-21T09:17:42.318Z,94.80
2023-05-21T09:20:13.030Z,94.80
2023-05-21T09:22:41.387Z,94.40
2023-05-21T09:25:09.203Z,94.30
2023-05-21T09:27:36.828Z,94.70
2023-05-21T09:30:04.384Z,94.50
2023-05-21T09:32:32.041Z,94.70
2023-05-21T09:34:59.599Z,94.50
2023-05-21T09:37:27.878Z,94.50
2023-05-21T09:39:55.595Z,94.20
2023-05-21T09:42:23.155Z,94.20
2023-05-21T09:44:50.744Z,94.00
2023-05-21T09:47:18.375Z,93.80
2023-05-21T09:49:45.959Z,93.80
2023-05-21T09:52:13.534Z,93.80
2023-05-21T09:54:41.168Z,94.00
2023-05-21T09:57:08.760Z,94.00
2023-05-21T09:59:36.367Z,93.90
2023-05-21T10:02:04.079Z,93.70
2023-05-21T10:04:31.622Z,93.70
2023-05-21T10:06:59.194Z,93.70
2023-05-21T10:09:26.807Z,93.40
2023-05-21T10:11:54.378Z,93.30
2023-05-21T10:14:21.957Z,92.60
2023-05-21T10:16:49.693Z,92.20
2023-05-21T10:19:17.313Z,91.70
2023-05-21T10:21:44.882Z,91.30
2023-05-21T10:24:12.495Z,91.20
2023-05-21T10:26:40.060Z,91.40
2023-05-21T10:29:07.638Z,91.00
2023-05-21T10:31:35.254Z,90.70
2023-05-21T10:34:02.848Z,90.90
2023-05-21T10:36:30.421Z,90.90
2023-05-21T10:38:58.085Z,90.70
2023-05-21T10:41:25.691Z,90.60
2023-05-21T10:43:53.256Z,90.50
2023-05-21T10:46:39.502Z,90.30
2023-05-21T10:49:25.509Z,90.30
2023-05-21T10:51:56.927Z,90.20
2023-05-21T10:54:36.365Z,90.10
2023-05-21T10:57:25.139Z,89.30
2023-05-21T10:59:52.723Z,87.10
2023-05-21T11:02:21.122Z,84.60
2023-05-21T11:04:48.861Z,84.50
2023-05-21T11:07:17.189Z,83.60
2023-05-21T11:09:44.759Z,82.80
2023-05-21T11:12:12.403Z,82.90
2023-05-21T11:14:40.178Z,82.50
2023-05-21T11:17:10.614Z,82.40
2023-05-21T11:19:44.047Z,82.60
2023-05-21T11:22:11.466Z,82.70
2023-05-21T11:24:39.051Z,82.90
2023-05-21T11:27:07.430Z,80.00
2023-05-21T11:29:44.908Z,79.70
2023-05-21T11:32:12.554Z,79.60
2023-05-21T11:34:40.137Z,79.70
2023-05-21T11:37:25.586Z,79.20
2023-05-21T11:39:53.147Z,79.40
2023-05-21T11:42:29.641Z,79.70
2023-05-21T11:44:57.269Z,79.30
2023-05-21T11:47:24.867Z,77.40
2023-05-21T11:49:52.432Z,77.00
2023-05-21T11:52:20.860Z,76.20
2023-05-21T11:54:51.515Z,76.10
2023-05-21T11:57:19.131Z,76.50
2023-05-21T11:59:46.738Z,75.70
2023-05-21T12:02:17.269Z,75.60
2023-05-21T12:04:44.813Z,75.70
2023-05-21T12:07:12.432Z,75.10
2023-05-21T12:09:42.925Z,74.90
2023-05-21T12:12:10.515Z,75.30
2023-05-21T12:14:38.896Z,71.90
2023-05-21T12:17:06.480Z,71.70
2023-05-21T12:19:36.949Z,70.20
2023-05-21T12:22:04.629Z,70.10
2023-05-21T12:24:32.996Z,68.30
2023-05-21T12:27:00.580Z,68.30
2023-05-21T12:29:28.971Z,66.20
2023-05-21T12:31:59.859Z,66.30
2023-05-21T12:34:45.483Z,66.30
2023-05-21T12:37:16.384Z,65.80
2023-05-21T12:39:46.660Z,65.80
2023-05-21T12:42:14.289Z,65.40
2023-05-21T12:44:45.289Z,63.70
2023-05-21T12:47:12.875Z,63.70
2023-05-21T12:49:40.508Z,63.10
2023-05-21T12:52:13.835Z,63.30
2023-05-21T12:54:41.425Z,64.30
2023-05-21T12:57:11.786Z,63.20
2023-05-21T12:59:57.191Z,61.90
2023-05-21T13:02:27.512Z,60.80
2023-05-21T13:04:55.040Z,60.30
2023-05-21T13:07:22.620Z,60.00
2023-05-21T13:09:50.225Z,59.80
2023-05-21T13:12:17.800Z,59.50
2023-05-21T13:14:45.428Z,59.10
2023-05-21T13:17:13.003Z,58.90
2023-05-21T13:19:41.339Z,58.60
2023-05-21T13:22:08.915Z,58.50
2023-05-21T13:24:37.320Z,58.60
2023-05-21T13:27:04.869Z,58.30
2023-05-21T13:29:33.221Z,57.70
2023-05-21T13:32:00.835Z,57.70
2023-05-21T13:34:28.413Z,58.00
2023-05-21T13:36:56.028Z,58.20
2023-05-21T13:39:23.597Z,57.90
2023-05-21T13:41:51.168Z,57.70
2023-05-21T13:44:18.746Z,57.40
2023-05-21T13:46:46.393Z,57.00
2023-05-21T13:49:14.721Z,56.20
2023-05-21T13:51:42.288Z,56.20
2023-05-21T13:54:09.910Z,56.40
2023-05-21T13:56:37.587Z,56.90
2023-05-21T13:59:05.068Z,56.00
2023-05-21T14:01:32.804Z,55.70
2023-05-21T14:04:00.278Z,54.40
2023-05-21T14:06:27.847Z,54.10
2023-05-21T14:08:56.241Z,54.20
2023-05-21T14:11:24.572Z,53.80
2023-05-21T14:13:52.166Z,53.80
2023-05-21T14:16:19.822Z,53.80
2023-05-21T14:18:47.395Z,53.00
2023-05-21T14:21:14.960Z,53.40
2023-05-21T14:23:43.349Z,53.20
2023-05-21T14:26:10.938Z,53.80
2023-05-21T14:28:38.517Z,53.00
2023-05-21T14:31:06.128Z,52.10
2023-05-21T14:33:33.701Z,52.00
2023-05-21T14:36:01.285Z,51.50
2023-05-21T14:38:28.938Z,51.10
2023-05-21T14:40:56.482Z,51.10
2023-05-21T14:43:24.074Z,51.30
2023-05-21T14:45:51.693Z,51.30
2023-05-21T14:48:19.253Z,50.60
2023-05-21T14:50:46.816Z,50.40
2023-05-21T14:53:14.497Z,50.50
2023-05-21T14:55:42.979Z,50.30
2023-05-21T14:58:10.354Z,50.20
2023-05-21T15:00:37.978Z,50.20
2023-05-21T15:03:05.633Z,50.10
2023-05-21T15:05:33.199Z,50.30
2023-05-21T15:08:01.557Z,51.70
2023-05-21T15:10:29.910Z,51.00
2023-05-21T15:12:57.475Z,51.00
2023-05-21T15:15:25.943Z,51.40
2023-05-21T15:17:53.557Z,51.00
2023-05-21T15:20:21.916Z,51.30
2023-05-21T15:22:48.820Z,50.50
2023-05-21T15:25:16.412Z,50.40
2023-05-21T15:27:44.842Z,50.00
2023-05-21T15:30:12.500Z,49.90
2023-05-21T15:32:40.097Z,50.20
2023-05-21T15:35:07.724Z,49.80
2023-05-21T15:37:36.052Z,50.70
2023-05-21T15:40:03.619Z,50.60
2023-05-21T15:42:31.241Z,50.80
2023-05-21T15:44:58.863Z,51.10
2023-05-21T15:47:26.549Z,51.00
2023-05-21T15:49:54.031Z,51.10
2023-05-21T15:52:21.652Z,51.30
2023-05-21T15:54:49.227Z,51.20
2023-05-21T15:57:16.825Z,51.30
2023-05-21T15:59:45.430Z,51.40
2023-05-21T16:02:12.986Z,51.30
2023-05-21T16:04:40.569Z,51.20
2023-05-21T16:07:08.188Z,51.20
2023-05-21T16:09:36.524Z,51.20
2023-05-21T16:12:04.120Z,51.20
2023-05-21T16:14:31.767Z,51.40
2023-05-21T16:16:59.336Z,51.00
2023-05-21T16:19:26.954Z,51.00
2023-05-21T16:21:54.726Z,51.00
2023-05-21T16:24:25.241Z,51.30
2023-05-21T16:26:53.232Z,51.60
2023-05-21T16:29:22.048Z,52.20
2023-05-21T16:31:49.451Z,52.70
2023-05-21T16:34:17.034Z,53.10
2023-05-21T16:36:44.598Z,53.00
2023-05-21T16:39:12.193Z,53.20
2023-05-21T16:41:40.545Z,54.10
2023-05-21T16:44:08.171Z,53.90
2023-05-21T16:46:35.843Z,54.00
2023-05-21T16:49:03.337Z,53.90
2023-05-21T16:51:30.953Z,54.10
2023-05-21T16:53:58.535Z,54.10
2023-05-21T16:56:26.128Z,54.10
2023-05-21T16:58:54.539Z,53.90
2023-05-21T17:01:22.172Z,53.80
2023-05-21T17:03:49.873Z,53.80
2023-05-21T17:06:18.117Z,53.90
2023-05-21T17:08:45.691Z,54.40
2023-05-21T17:11:13.271Z,54.20
2023-05-21T17:13:40.897Z,54.30
2023-05-21T17:16:09.286Z,54.90
2023-05-21T17:18:37.620Z,55.30
2023-05-21T17:21:05.249Z,55.20
2023-05-21T17:23:32.864Z,55.50
2023-05-21T17:26:01.229Z,56.70
2023-05-21T17:28:28.831Z,56.20
2023-05-21T17:30:56.405Z,56.50
2023-05-21T17:33:24.013Z,57.00
2023-05-21T17:35:51.642Z,57.00
2023-05-21T17:38:19.217Z,57.40
2023-05-21T17:40:46.794Z,57.90
2023-05-21T17:43:15.374Z,58.20
2023-05-21T17:45:42.960Z,59.20
2023-05-21T17:48:10.568Z,59.10
2023-05-21T17:50:38.321Z,59.60
2023-05-21T17:53:05.930Z,60.10
2023-05-21T17:55:34.359Z,61.50
2023-05-21T17:58:01.927Z,61.40
2023-05-21T18:00:29.495Z,61.70
2023-05-21T18:02:57.160Z,62.10
2023-05-21T18:05:24.686Z,62.20
2023-05-21T18:07:52.261Z,62.70
2023-05-21T18:10:19.834Z,63.50
2023-05-21T18:12:47.459Z,64.10
2023-05-21T18:15:15.055Z,64.50
2023-05-21T18:17:42.717Z,64.00
2023-05-21T18:20:10.318Z,64.30
2023-05-21T18:22:37.904Z,64.60
2023-05-21T18:25:05.485Z,64.90
2023-05-21T18:27:33.137Z,65.00
2023-05-21T18:30:00.709Z,65.20
2023-05-21T18:32:28.388Z,65.30
2023-05-21T18:34:55.903Z,65.80
2023-05-21T18:37:23.592Z,66.70
2023-05-21T18:39:51.062Z,66.60
2023-05-21T18:42:18.937Z,66.90
2023-05-21T18:44:46.549Z,68.30
2023-05-21T18:47:14.874Z,68.60
2023-05-21T18:49:42.694Z,68.60
2023-05-21T18:52:10.266Z,69.30
2023-05-21T18:54:37.878Z,70.10
2023-05-21T18:57:06.325Z,70.80
2023-05-21T18:59:33.885Z,70.80
2023-05-21T19:02:01.561Z,71.50
2023-05-21T19:04:29.105Z,72.10
2023-05-21T19:06:56.705Z,72.60
2023-05-21T19:09:25.065Z,74.10
2023-05-21T19:11:52.666Z,74.00
2023-05-21T19:14:20.256Z,73.90
2023-05-21T19:16:47.825Z,74.50
2023-05-21T19:19:15.479Z,74.40
2023-05-21T19:21:43.063Z,75.10
2023-05-21T19:24:11.415Z,75.90
2023-05-21T19:26:39.102Z,75.90
2023-05-21T19:29:06.633Z,76.50
2023-05-21T19:31:34.226Z,77.40
2023-05-21T19:34:03.643Z,77.90
2023-05-21T19:36:40.843Z,77.80
2023-05-21T19:38:58.823Z,78.20
2023-05-21T19:41:26.451Z,78.70
2023-05-21T19:43:54.046Z,79.30
2023-05-21T19:46:21.802Z,79.90
2023-05-21T19:48:50.048Z,81.40
2023-05-21T19:51:17.640Z,81.30
2023-05-21T19:53:45.284Z,81.40
2023-05-21T19:56:12.901Z,82.10
2023-05-21T19:58:41.422Z,83.60
2023-05-21T20:01:09.764Z,84.50
2023-05-21T20:03:38.385Z,84.50
2023-05-21T20:06:05.968Z,85.20
2023-05-21T20:08:33.573Z,86.20
2023-05-21T20:11:02.020Z,86.90
2023-05-21T20:13:29.555Z,86.80
2023-05-21T20:15:57.148Z,87.30
2023-05-21T20:18:24.797Z,88.10
2023-05-21T20:20:52.386Z,90.10
2023-05-21T20:23:20.943Z,90.10
2023-05-21T20:25:48.564Z,90.10
2023-05-21T20:28:16.131Z,90.60
2023-05-21T20:30:52.847Z,91.10
2023-05-21T20:33:20.436Z,91.00
2023-05-21T20:35:48.030Z,91.30
2023-05-21T20:38:15.634Z,91.60
2023-05-21T20:40:44.049Z,91.90
2023-05-21T20:43:14.554Z,92.20
2023-05-21T20:45:43.249Z,92.60
2023-05-21T20:48:10.929Z,92.60
2023-05-21T20:50:39.033Z,92.90
2023-05-21T20:53:06.388Z,93.40
2023-05-21T20:55:34.053Z,93.80
2023-05-21T20:58:01.627Z,94.10
2023-05-21T21:00:29.998Z,94.90
2023-05-21T21:02:57.680Z,94.80
2023-05-21T21:05:25.226Z,95.20
2023-05-21T21:07:55.741Z,96.30
2023-05-21T21:10:21.233Z,96.10
2023-05-21T21:12:48.869Z,96.40
2023-05-21T21:15:16.682Z,96.40
2023-05-21T21:17:44.718Z,96.30
2023-05-21T21:20:12.412Z,96.70
2023-05-21T21:22:40.009Z,97.20
2023-05-21T21:25:07.676Z,97.60
2023-05-21T21:27:36.062Z,98.30
2023-05-21T21:30:03.648Z,98.20
2023-05-21T21:32:32.405Z,98.70
2023-05-21T21:35:00.343Z,99.90
2023-05-21T21:37:27.946Z,99.90
2023-05-21T21:39:55.568Z,99.90
2023-05-21T21:42:24.054Z,99.90
2023-05-21T21:44:52.411Z,99.90
2023-05-21T21:47:20.118Z,99.90
2023-05-21T21:49:47.717Z,99.90
2023-05-21T21:52:15.309Z,99.90
2023-05-21T21:54:43.717Z,99.90
2023-05-21T21:57:12.049Z,99.90
2023-05-21T21:59:39.612Z,99.90
2023-05-21T22:02:08.005Z,99.90
2023-05-21T22:04:36.460Z,99.90
2023-05-21T22:07:03.970Z,99.90
2023-05-21T22:09:31.643Z,99.90
2023-05-21T22:11:59.946Z,99.90
2023-05-21T22:14:27.539Z,99.90
2023-05-21T22:16:56.022Z,99.90
2023-05-21T22:19:23.637Z,99.90
2023-05-21T22:21:51.939Z,99.90
2023-05-21T22:24:31.417Z,99.90
2023-05-21T22:26:47.164Z,99.90
2023-05-21T22:29:14.738Z,99.90
2023-05-21T22:31:43.216Z,99.90
2023-05-21T22:34:10.795Z,99.90
2023-05-21T22:36:39.144Z,99.90
2023-05-21T22:39:06.782Z,99.90
2023-05-21T22:41:34.363Z,99.90
2023-05-21T22:44:01.946Z,99.90
2023-05-21T22:46:29.598Z,99.90
2023-05-21T22:48:57.164Z,99.90
2023-05-21T22:51:25.533Z,99.90
2023-05-21T22:53:53.947Z,99.90
2023-05-21T22:56:21.534Z,99.90
2023-05-21T22:58:49.159Z,99.90
2023-05-21T23:01:16.826Z,99.90
2023-05-21T23:03:44.363Z,99.90
2023-05-21T23:06:12.721Z,99.90
2023-05-21T23:08:40.341Z,99.90
2023-05-21T23:11:07.940Z,99.90
2023-05-21T23:13:35.783Z,99.90
2023-05-21T23:16:03.455Z,99.90
2023-05-21T23:18:30.989Z,99.90
2023-05-21T23:20:58.621Z,99.90
2023-05-21T23:23:26.219Z,99.90
2023-05-21T23:25:53.820Z,99.90
2023-05-21T23:28:21.419Z,99.90
2023-05-21T23:30:49.045Z,99.90
2023-05-21T23:33:17.401Z,99.90
2023-05-21T23:35:44.991Z,99.90
2023-05-21T23:38:13.457Z,99.90
2023-05-21T23:40:41.149Z,99.90
2023-05-21T23:43:08.643Z,99.90
2023-05-21T23:45:36.304Z,99.90
2023-05-21T23:48:04.722Z,99.90
2023-05-21T23:50:32.261Z,99.90
2023-05-21T23:52:59.890Z,99.90
2023-05-21T23:55:27.741Z,99.90
2023-05-21T23:57:55.319Z,99.90
